Time;durP1;ratioP1;P1;durP2;ratioP2;P2;SDS_P1;SDS_P2;PMS_P1;PMS_P2;Temp;Humidity;BMP_temperature;BMP_pressure;BME280_temperature;BME280_humidity;BME280_pressure;Samples;Min_cycle;Max_cycle;Signal;HPM_P1;HPM_P2
2022/03/02 00:00:52;;;;;;;13.93;9.77;;;16.70;40.90;;;;;;5053946;28;20442;-78
2022/03/02 00:03:20;;;;;;;14.73;9.90;;;16.70;41.10;;;;;;5051097;28;20440;-79
2022/03/02 00:05:48;;;;;;;15.00;10.13;;;16.70;41.00;;;;;;5051520;28;20524;-78
2022/03/02 00:08:15;;;;;;;14.60;9.60;;;16.70;41.20;;;;;;5050531;28;20451;-78
2022/03/02 00:10:43;;;;;;;13.47;9.70;;;16.70;41.20;;;;;;5049351;28;20496;-78
2022/03/02 00:13:13;;;;;;;14.60;9.90;;;16.70;41.30;;;;;;5049193;28;20474;-78
2022/03/02 00:15:40;;;;;;;12.60;9.50;;;16.70;41.40;;;;;;5051769;28;20439;-79
2022/03/02 00:18:08;;;;;;;14.30;10.03;;;16.70;41.40;;;;;;5050191;28;20561;-79
2022/03/02 00:20:37;;;;;;;14.80;9.60;;;16.60;41.40;;;;;;5052133;28;20426;-80
2022/03/02 00:23:04;;;;;;;17.23;9.67;;;16.60;41.50;;;;;;5053361;28;20450;-80
2022/03/02 00:25:32;;;;;;;13.33;9.40;;;16.60;41.60;;;;;;5051977;28;20434;-80
2022/03/02 00:28:00;;;;;;;17.80;9.97;;;16.60;41.60;;;;;;5051809;28;20438;-80
2022/03/02 00:30:31;;;;;;;14.60;9.67;;;16.60;41.70;;;;;;5054606;28;20455;-80
2022/03/02 00:33:00;;;;;;;13.30;9.33;;;16.60;41.80;;;;;;5055379;28;20528;-80
2022/03/02 00:35:28;;;;;;;14.23;9.73;;;16.60;41.70;;;;;;5053566;28;20474;-79
2022/03/02 00:37:56;;;;;;;14.03;9.00;;;16.50;41.80;;;;;;5053864;28;20474;-80
2022/03/02 00:40:24;;;;;;;14.43;9.97;;;16.60;41.90;;;;;;5053425;28;20852;-80
2022/03/02 00:42:52;;;;;;;11.33;8.93;;;16.50;41.80;;;;;;5053384;28;20466;-80
2022/03/02 00:45:20;;;;;;;15.03;9.93;;;16.50;41.80;;;;;;5052768;28;20427;-80
2022/03/02 00:47:50;;;;;;;13.33;9.60;;;16.50;42.60;;;;;;5052376;28;20462;-78
2022/03/02 00:50:18;;;;;;;14.70;9.90;;;16.50;42.00;;;;;;5057420;28;20434;-78
2022/03/02 00:52:46;;;;;;;13.60;9.00;;;16.50;42.10;;;;;;5055362;28;20455;-78
2022/03/02 00:55:14;;;;;;;14.90;9.70;;;16.50;42.10;;;;;;5055454;28;20526;-78
2022/03/02 00:57:42;;;;;;;14.23;9.87;;;16.50;42.10;;;;;;5058506;28;20522;-78
2022/03/02 01:00:10;;;;;;;13.97;9.50;;;16.40;42.10;;;;;;5052925;28;20431;-78
2022/03/02 01:02:38;;;;;;;13.03;9.60;;;16.50;42.20;;;;;;5055261;28;20482;-79
2022/03/02 01:05:08;;;;;;;13.60;9.53;;;16.50;42.20;;;;;;5052503;28;20446;-78
2022/03/02 01:07:35;;;;;;;15.67;10.43;;;16.50;42.20;;;;;;5053286;28;20485;-79
2022/03/02 01:10:04;;;;;;;14.43;9.33;;;16.50;42.30;;;;;;5053978;28;20514;-78
2022/03/02 01:12:32;;;;;;;12.03;8.93;;;16.40;42.20;;;;;;5056099;28;20482;-80
2022/03/02 01:15:00;;;;;;;23.03;10.77;;;16.40;42.30;;;;;;5055358;28;20430;-80
2022/03/02 01:17:28;;;;;;;12.87;8.80;;;16.40;42.30;;;;;;5055635;28;20450;-79
2022/03/02 01:19:57;;;;;;;13.77;9.33;;;16.40;42.40;;;;;;5054526;28;20474;-78
2022/03/02 01:22:29;;;;;;;12.40;8.73;;;16.40;42.40;;;;;;5053021;28;20500;-78
2022/03/02 01:24:58;;;;;;;13.40;8.90;;;16.40;42.40;;;;;;5052955;28;20441;-77
2022/03/02 01:27:26;;;;;;;11.23;8.90;;;16.40;42.50;;;;;;5053698;28;20468;-79
2022/03/02 01:29:55;;;;;;;11.70;8.40;;;16.30;42.40;;;;;;5053761;28;20524;-79
2022/03/02 01:32:23;;;;;;;13.53;9.13;;;16.30;42.50;;;;;;5054895;28;20504;-79
2022/03/02 01:34:51;;;;;;;13.17;9.10;;;16.30;42.60;;;;;;5056911;28;20419;-80
2022/03/02 01:37:18;;;;;;;13.37;9.07;;;16.30;42.50;;;;;;5054152;28;20483;-80
2022/03/02 01:39:48;;;;;;;13.07;9.13;;;16.30;42.60;;;;;;5053835;28;20478;-78
2022/03/02 01:42:16;;;;;;;14.67;8.93;;;16.30;42.70;;;;;;5052814;28;20462;-78
2022/03/02 01:44:44;;;;;;;13.87;9.10;;;16.30;42.60;;;;;;5056342;28;20500;-79
2022/03/02 01:47:12;;;;;;;12.47;9.20;;;16.30;42.70;;;;;;5056108;28;20477;-79
2022/03/02 01:49:40;;;;;;;13.10;9.37;;;16.30;42.70;;;;;;5054702;28;20909;-79
2022/03/02 01:52:08;;;;;;;12.60;9.00;;;16.30;42.80;;;;;;5053967;28;20458;-79
2022/03/02 01:54:36;;;;;;;12.43;8.70;;;16.20;42.80;;;;;;5057290;28;20430;-80
2022/03/02 01:57:06;;;;;;;12.03;9.07;;;16.30;42.80;;;;;;5057725;28;20446;-81
2022/03/02 01:59:34;;;;;;;15.43;9.03;;;16.20;43.00;;;;;;5058926;28;20474;-81
2022/03/02 02:02:02;;;;;;;11.20;8.63;;;16.20;43.00;;;;;;5057026;28;20453;-80
2022/03/02 02:04:30;;;;;;;15.40;9.90;;;16.20;43.00;;;;;;5055501;28;20504;-79
2022/03/02 02:06:58;;;;;;;11.50;8.90;;;16.20;43.00;;;;;;5051802;28;20585;-78
2022/03/02 02:09:26;;;;;;;12.33;8.93;;;16.20;43.00;;;;;;5052253;28;20478;-79
2022/03/02 02:11:54;;;;;;;13.27;9.47;;;16.20;43.00;;;;;;5054523;28;20470;-80
2022/03/02 02:14:23;;;;;;;11.43;8.50;;;16.20;43.10;;;;;;5056297;28;20423;-82
2022/03/02 02:16:52;;;;;;;13.43;8.90;;;16.20;43.20;;;;;;5055211;28;20470;-80
2022/03/02 02:19:20;;;;;;;12.67;8.30;;;16.20;43.20;;;;;;5054057;28;20502;-81
2022/03/02 02:21:49;;;;;;;11.70;8.90;;;16.10;43.10;;;;;;5056614;28;20438;-81
2022/03/02 02:24:17;;;;;;;13.97;9.03;;;16.10;43.10;;;;;;5053247;28;20442;-81
2022/03/02 02:26:45;;;;;;;11.73;8.60;;;16.20;43.20;;;;;;5056491;28;20485;-82
2022/03/02 02:29:13;;;;;;;11.27;8.33;;;16.10;43.10;;;;;;5056795;28;20430;-82
2022/03/02 02:31:41;;;;;;;14.53;8.53;;;16.10;43.20;;;;;;5054828;28;20422;-82
2022/03/02 02:34:09;;;;;;;13.40;8.70;;;16.10;43.20;;;;;;5049460;28;20447;-81
2022/03/02 02:36:37;;;;;;;12.93;8.60;;;16.10;43.30;;;;;;5049761;28;20855;-81
2022/03/02 02:39:06;;;;;;;13.10;8.23;;;16.10;43.30;;;;;;5049222;28;20498;-81
2022/03/02 02:41:34;;;;;;;11.43;8.33;;;16.10;43.40;;;;;;5048666;28;20457;-81
2022/03/02 02:44:02;;;;;;;11.27;8.00;;;16.10;43.40;;;;;;5056588;28;20485;-81
2022/03/02 02:46:30;;;;;;;10.73;8.13;;;16.10;44.00;;;;;;5051899;28;20446;-81
2022/03/02 02:48:58;;;;;;;14.50;9.50;;;16.10;43.50;;;;;;5048953;28;20424;-81
2022/03/02 02:51:26;;;;;;;12.83;8.37;;;16.10;43.50;;;;;;5048960;28;20470;-81
2022/03/02 02:53:54;;;;;;;13.10;8.63;;;16.10;43.50;;;;;;5045512;28;20458;-81
2022/03/02 02:56:23;;;;;;;11.67;8.53;;;16.00;43.50;;;;;;5049965;28;20451;-81
2022/03/02 02:58:51;;;;;;;13.23;8.40;;;16.00;43.50;;;;;;5051140;28;20442;-81
2022/03/02 03:01:19;;;;;;;11.83;8.93;;;16.00;43.50;;;;;;5055241;28;20447;-81
2022/03/02 03:03:48;;;;;;;9.97;7.90;;;16.00;43.50;;;;;;5051039;28;20454;-81
2022/03/02 03:06:16;;;;;;;14.50;8.30;;;16.00;43.50;;;;;;5049823;28;20443;-81
2022/03/02 03:08:44;;;;;;;12.00;8.70;;;16.00;43.60;;;;;;5049172;28;20428;-81
2022/03/02 03:11:11;;;;;;;12.17;8.67;;;16.00;43.60;;;;;;5051516;28;20460;-81
2022/03/02 03:13:41;;;;;;;10.17;8.20;;;16.00;43.60;;;;;;5048662;28;20458;-81
2022/03/02 03:16:09;;;;;;;14.23;8.23;;;15.90;43.60;;;;;;5054910;28;20474;-81
2022/03/02 03:18:37;;;;;;;13.03;8.30;;;16.00;43.60;;;;;;5060036;28;20446;-81
2022/03/02 03:21:04;;;;;;;11.90;8.93;;;16.00;43.70;;;;;;5058892;28;20505;-81
2022/03/02 03:23:32;;;;;;;14.97;8.67;;;16.00;43.80;;;;;;5059083;28;20494;-81
2022/03/02 03:26:00;;;;;;;13.07;8.30;;;16.00;43.70;;;;;;5059056;28;20446;-81
2022/03/02 03:28:28;;;;;;;12.23;9.07;;;15.90;43.70;;;;;;5059219;28;20497;-81
2022/03/02 03:30:57;;;;;;;14.17;9.30;;;15.90;43.60;;;;;;5059439;28;20431;-81
2022/03/02 03:33:25;;;;;;;12.10;8.00;;;15.90;43.70;;;;;;5057484;28;20470;-81
2022/03/02 03:35:53;;;;;;;13.00;8.37;;;15.90;43.90;;;;;;5058574;28;20462;-81
2022/03/02 03:38:21;;;;;;;10.73;8.17;;;15.90;43.80;;;;;;5058841;28;20504;-81
2022/03/02 03:40:49;;;;;;;13.70;8.30;;;15.90;43.90;;;;;;5058169;28;20478;-81
2022/03/02 03:43:17;;;;;;;10.40;8.20;;;15.90;44.00;;;;;;5058224;28;20505;-81
2022/03/02 03:45:45;;;;;;;12.87;9.03;;;15.90;43.90;;;;;;5058278;28;20461;-81
2022/03/02 03:48:14;;;;;;;10.90;7.77;;;15.90;44.00;;;;;;5057262;28;20527;-81
2022/03/02 03:50:44;;;;;;;13.30;8.10;;;15.90;43.90;;;;;;5050971;28;20501;-81
2022/03/02 03:53:12;;;;;;;11.27;8.53;;;15.80;44.00;;;;;;5058097;28;20462;-81
2022/03/02 03:55:40;;;;;;;11.70;8.10;;;15.80;44.00;;;;;;5058254;28;20435;-81
2022/03/02 03:58:08;;;;;;;13.80;8.60;;;15.80;44.00;;;;;;5058561;28;20934;-81
2022/03/02 04:00:36;;;;;;;13.57;8.33;;;15.80;44.10;;;;;;5058100;28;20547;-81
2022/03/02 04:03:05;;;;;;;12.17;8.47;;;15.80;44.00;;;;;;5058038;28;20516;-81
2022/03/02 04:05:35;;;;;;;12.73;8.10;;;15.80;44.20;;;;;;5057029;28;20500;-81
2022/03/02 04:08:03;;;;;;;14.40;8.10;;;15.80;44.20;;;;;;5057382;28;20430;-81
2022/03/02 04:10:30;;;;;;;11.93;8.33;;;15.80;44.10;;;;;;5057872;28;20439;-81
2022/03/02 04:12:58;;;;;;;15.33;9.20;;;15.80;44.20;;;;;;5057956;28;20470;-81
2022/03/02 04:15:26;;;;;;;11.57;8.03;;;15.70;44.10;;;;;;5057399;28;20431;-81
2022/03/02 04:17:54;;;;;;;12.00;7.97;;;15.70;44.20;;;;;;5056761;28;20450;-81
2022/03/02 04:20:22;;;;;;;12.13;8.20;;;15.70;44.20;;;;;;5056585;28;20892;-81
2022/03/02 04:22:52;;;;;;;11.17;8.30;;;15.70;44.20;;;;;;5057531;28;20451;-81
2022/03/02 04:25:19;;;;;;;11.87;8.27;;;15.70;44.30;;;;;;5057069;28;20504;-80
2022/03/02 04:27:47;;;;;;;12.67;8.60;;;15.70;44.90;;;;;;5057327;28;20475;-81
2022/03/02 04:30:16;;;;;;;11.60;8.73;;;15.70;44.30;;;;;;5057329;28;20439;-81
2022/03/02 04:32:44;;;;;;;11.37;7.93;;;15.70;44.30;;;;;;5057778;28;20817;-81
2022/03/02 04:35:13;;;;;;;13.03;8.33;;;15.70;44.40;;;;;;5056343;28;20496;-81
2022/03/02 04:37:41;;;;;;;11.80;7.80;;;15.70;44.40;;;;;;5049333;28;20427;-81
2022/03/02 04:40:11;;;;;;;12.70;8.40;;;15.60;44.40;;;;;;5057106;28;20520;-81
2022/03/02 04:42:39;;;;;;;10.90;7.87;;;15.60;44.40;;;;;;5056967;28;20498;-81
2022/03/02 04:45:07;;;;;;;14.37;8.40;;;15.60;44.50;;;;;;5057293;28;20537;-81
2022/03/02 04:47:35;;;;;;;11.70;8.43;;;15.60;44.50;;;;;;5057427;28;20479;-81
2022/03/02 04:50:04;;;;;;;14.03;8.20;;;15.60;44.50;;;;;;5056338;28;20470;-81
2022/03/02 04:52:31;;;;;;;10.30;7.47;;;15.60;44.50;;;;;;5056498;28;20494;-81
2022/03/02 04:55:09;;;;;;;12.17;8.23;;;15.50;44.60;;;;;;5057314;28;20446;-81
2022/03/02 04:57:41;;;;;;;11.50;8.00;;;15.50;44.60;;;;;;5057198;28;20549;-81
2022/03/02 05:00:10;;;;;;;10.77;7.47;;;15.50;44.60;;;;;;5058327;28;20474;-81
2022/03/02 05:02:38;;;;;;;11.33;8.40;;;15.50;44.70;;;;;;5057352;28;20458;-81
2022/03/02 05:05:08;;;;;;;10.70;7.50;;;15.50;44.70;;;;;;5056385;28;20466;-81
2022/03/02 05:07:35;;;;;;;9.57;7.50;;;15.50;44.70;;;;;;5057114;28;20439;-81
2022/03/02 05:10:04;;;;;;;9.87;7.60;;;15.50;44.80;;;;;;5057520;28;20478;-81
2022/03/02 05:12:32;;;;;;;10.37;7.70;;;15.50;44.80;;;;;;5058014;28;20539;-81
2022/03/02 05:15:01;;;;;;;11.23;7.77;;;15.40;44.80;;;;;;5057341;28;20438;-81
2022/03/02 05:17:29;;;;;;;11.87;8.67;;;15.40;44.80;;;;;;5057138;28;20447;-81
2022/03/02 05:19:57;;;;;;;10.60;7.13;;;15.40;44.90;;;;;;5056889;28;20508;-81
2022/03/02 05:22:25;;;;;;;11.00;8.10;;;15.30;45.40;;;;;;5055195;28;20470;-81
2022/03/02 05:24:53;;;;;;;11.73;7.90;;;15.30;44.80;;;;;;5056078;28;20478;-81
2022/03/02 05:27:21;;;;;;;10.67;7.30;;;15.30;44.90;;;;;;5056755;28;20474;-81
2022/03/02 05:29:49;;;;;;;12.10;8.37;;;15.30;45.00;;;;;;5056655;28;20462;-81
2022/03/02 05:32:18;;;;;;;15.60;8.67;;;15.20;45.00;;;;;;5059101;28;20494;-81
2022/03/02 05:34:46;;;;;;;12.90;8.63;;;15.20;44.90;;;;;;5060264;28;20520;-81
2022/03/02 05:37:13;;;;;;;14.33;8.50;;;15.20;45.00;;;;;;5061008;28;20512;-81
2022/03/02 05:39:42;;;;;;;17.43;8.30;;;15.20;45.10;;;;;;5059678;28;20458;-81
2022/03/02 05:42:10;;;;;;;10.80;8.40;;;15.10;44.90;;;;;;5059449;28;20466;-81
2022/03/02 05:44:38;;;;;;;11.70;8.00;;;15.10;45.10;;;;;;5060345;28;20446;-81
2022/03/02 05:47:06;;;;;;;16.40;8.90;;;15.10;45.10;;;;;;5059052;28;20426;-81
2022/03/02 05:49:35;;;;;;;9.93;7.90;;;15.00;45.10;;;;;;5059874;28;20451;-81
2022/03/02 05:52:04;;;;;;;10.53;8.07;;;15.10;45.20;;;;;;5060027;28;20445;-81
2022/03/02 05:54:32;;;;;;;11.13;7.60;;;15.10;45.20;;;;;;5060651;28;20438;-80
2022/03/02 05:57:00;;;;;;;10.87;8.40;;;15.10;45.30;;;;;;5059430;28;20523;-81
2022/03/02 05:59:28;;;;;;;10.33;7.73;;;15.00;45.30;;;;;;5059589;28;20439;-81
2022/03/02 06:01:55;;;;;;;11.20;8.40;;;15.00;45.30;;;;;;5060343;28;20497;-81
2022/03/02 06:04:24;;;;;;;10.00;7.97;;;15.00;45.30;;;;;;5060769;28;20494;-80
2022/03/02 06:06:53;;;;;;;10.33;7.90;;;15.00;45.30;;;;;;5060827;28;20481;-81
2022/03/02 06:09:21;;;;;;;12.20;8.30;;;14.90;45.30;;;;;;5061079;28;20492;-80
2022/03/02 06:11:50;;;;;;;11.47;8.20;;;14.90;46.00;;;;;;5059375;28;20471;-81
2022/03/02 06:14:18;;;;;;;12.43;8.77;;;14.90;45.50;;;;;;5060193;28;20478;-81
2022/03/02 06:16:46;;;;;;;10.93;8.00;;;14.90;46.10;;;;;;5060129;28;20446;-80
2022/03/02 06:19:15;;;;;;;12.87;8.10;;;14.90;45.60;;;;;;5059758;28;20514;-80
2022/03/02 06:21:43;;;;;;;13.13;8.20;;;14.80;45.50;;;;;;5059939;28;20551;-80
2022/03/02 06:24:14;;;;;;;11.30;8.67;;;14.80;45.60;;;;;;5060231;28;20451;-80
2022/03/02 06:26:42;;;;;;;15.00;8.80;;;14.80;45.70;;;;;;5059279;28;20449;-80
2022/03/02 06:29:11;;;;;;;12.90;8.47;;;14.80;45.60;;;;;;5058835;28;20450;-80
2022/03/02 06:31:40;;;;;;;12.63;8.10;;;14.80;45.70;;;;;;5051593;28;20419;-80
2022/03/02 06:34:08;;;;;;;13.03;7.93;;;14.70;45.60;;;;;;5059101;28;20469;-80
2022/03/02 06:36:36;;;;;;;13.90;8.60;;;14.70;45.70;;;;;;5059919;28;20465;-80
2022/03/02 06:39:04;;;;;;;11.23;8.10;;;14.70;45.80;;;;;;5057908;28;20485;-78
2022/03/02 06:41:40;;;;;;;11.30;8.03;;;14.70;45.70;;;;;;5055586;28;20474;-79
2022/03/02 06:44:13;;;;;;;14.70;8.73;;;14.70;45.80;;;;;;5054454;28;20470;-78
2022/03/02 06:46:43;;;;;;;10.53;7.77;;;14.70;45.90;;;;;;5054721;28;20457;-79
2022/03/02 06:49:15;;;;;;;10.77;8.03;;;14.70;45.80;;;;;;5055281;28;20474;-79
2022/03/02 06:51:43;;;;;;;10.27;7.70;;;14.70;45.90;;;;;;5055956;28;20517;-79
2022/03/02 06:54:11;;;;;;;10.97;7.93;;;14.70;45.90;;;;;;5055586;28;20557;-78
2022/03/02 06:56:48;;;;;;;9.60;7.40;;;14.70;45.90;;;;;;5055544;28;20493;-79
2022/03/02 06:59:16;;;;;;;12.87;8.53;;;14.70;46.00;;;;;;5055144;28;20470;-79
2022/03/02 07:01:44;;;;;;;10.47;7.87;;;14.70;45.90;;;;;;5053685;28;20525;-79
2022/03/02 07:04:13;;;;;;;12.67;8.20;;;14.70;45.90;;;;;;5054580;28;20545;-79
2022/03/02 07:06:41;;;;;;;11.33;7.93;;;14.70;45.90;;;;;;5055298;28;20489;-79
2022/03/02 07:09:10;;;;;;;10.20;7.37;;;14.70;46.00;;;;;;5054926;28;20506;-80
2022/03/02 07:11:38;;;;;;;10.73;7.90;;;14.80;45.90;;;;;;5055328;28;20431;-80
2022/03/02 07:14:08;;;;;;;10.27;7.60;;;14.80;46.00;;;;;;5055450;28;20494;-80
2022/03/02 07:16:36;;;;;;;10.77;7.57;;;14.80;46.00;;;;;;5055658;28;20500;-79
2022/03/02 07:19:04;;;;;;;11.23;8.17;;;14.80;46.00;;;;;;5053915;28;20485;-79
2022/03/02 07:21:33;;;;;;;11.40;7.93;;;14.80;46.00;;;;;;5055235;28;20466;-79
2022/03/02 07:24:05;;;;;;;10.37;7.70;;;14.80;46.00;;;;;;5055111;28;20510;-80
2022/03/02 07:26:33;;;;;;;11.87;8.47;;;14.90;46.00;;;;;;5055339;28;20501;-80
2022/03/02 07:29:01;;;;;;;11.33;8.27;;;14.90;45.90;;;;;;5055268;28;20470;-79
2022/03/02 07:31:30;;;;;;;11.43;7.80;;;14.90;45.90;;;;;;5055180;28;20488;-80
2022/03/02 07:34:04;;;;;;;10.40;7.87;;;14.90;45.90;;;;;;5054077;28;20466;-80
2022/03/02 07:36:32;;;;;;;9.33;7.63;;;15.00;45.90;;;;;;5054572;28;20469;-79
2022/03/02 07:39:00;;;;;;;17.00;7.50;;;15.00;45.90;;;;;;5054718;28;20431;-80
2022/03/02 07:41:28;;;;;;;10.73;7.87;;;15.00;45.80;;;;;;5054751;28;20533;-80
2022/03/02 07:43:55;;;;;;;10.40;7.80;;;15.10;45.80;;;;;;5054583;28;20477;-80
2022/03/02 07:46:25;;;;;;;10.63;8.20;;;15.10;45.80;;;;;;5054871;28;20445;-80
2022/03/02 07:48:54;;;;;;;11.73;8.60;;;15.10;45.80;;;;;;5054917;28;20521;-80
2022/03/02 07:51:22;;;;;;;11.33;8.10;;;15.20;45.80;;;;;;5054083;28;20474;-81
2022/03/02 07:53:50;;;;;;;11.37;8.00;;;15.20;45.70;;;;;;5054440;28;20533;-81
2022/03/02 07:56:19;;;;;;;9.90;7.70;;;15.30;45.80;;;;;;5054554;28;20454;-80
2022/03/02 07:58:47;;;;;;;11.07;8.10;;;15.30;45.70;;;;;;5054909;28;20497;-80
2022/03/02 08:01:16;;;;;;;10.60;8.23;;;15.30;45.70;;;;;;5055125;28;20545;-80
2022/03/02 08:03:44;;;;;;;11.40;8.57;;;15.30;45.50;;;;;;5054500;28;20569;-80
2022/03/02 08:06:14;;;;;;;10.87;7.43;;;15.40;45.70;;;;;;5053339;28;20474;-79
2022/03/02 08:08:42;;;;;;;11.60;8.33;;;15.50;45.60;;;;;;5051430;28;20486;-78
2022/03/02 08:11:10;;;;;;;11.03;7.70;;;15.50;45.60;;;;;;5052037;28;20493;-78
2022/03/02 08:13:38;;;;;;;13.67;8.70;;;15.60;45.60;;;;;;5051970;28;20474;-78
2022/03/02 08:16:06;;;;;;;11.60;8.53;;;15.70;45.50;;;;;;5052186;28;20827;-79
2022/03/02 08:18:34;;;;;;;10.00;7.87;;;15.80;45.50;;;;;;5052103;28;20534;-79
2022/03/02 08:21:03;;;;;;;9.37;7.73;;;16.00;45.20;;;;;;5052009;28;20549;-79
2022/03/02 08:23:35;;;;;;;12.20;8.30;;;16.10;45.10;;;;;;5051414;28;20478;-79
2022/03/02 08:26:03;;;;;;;15.23;8.10;;;16.40;44.80;;;;;;5052163;28;20513;-79
2022/03/02 08:28:33;;;;;;;12.60;8.77;;;16.60;44.50;;;;;;5052018;28;20553;-79
2022/03/02 08:31:01;;;;;;;8.30;6.93;;;16.80;44.30;;;;;;5052251;28;20454;-78
2022/03/02 08:33:31;;;;;;;9.20;8.00;;;16.80;44.80;;;;;;5051768;28;20467;-79
2022/03/02 08:35:59;;;;;;;8.57;7.40;;;17.00;44.70;;;;;;5051939;28;20530;-79
2022/03/02 08:38:27;;;;;;;10.10;8.37;;;17.10;44.70;;;;;;5051447;28;20462;-79
2022/03/02 08:40:56;;;;;;;11.43;8.03;;;17.30;44.90;;;;;;5052338;28;20535;-79
2022/03/02 08:43:24;;;;;;;10.50;8.23;;;17.50;44.90;;;;;;5051604;28;20558;-79
2022/03/02 08:45:52;;;;;;;9.43;8.23;;;17.60;44.70;;;;;;5051998;28;20442;-79
2022/03/02 08:48:21;;;;;;;11.47;7.93;;;17.70;45.00;;;;;;5052219;28;20439;-79
2022/03/02 08:50:48;;;;;;;10.57;7.50;;;17.80;45.10;;;;;;5051712;28;20815;-79
2022/03/02 08:53:17;;;;;;;10.63;8.50;;;17.90;44.90;;;;;;5051921;28;20756;-79
2022/03/02 08:55:45;;;;;;;9.43;7.83;;;18.00;45.20;;;;;;5050389;28;20506;-79
2022/03/02 08:58:15;;;;;;;9.30;8.20;;;18.30;45.00;;;;;;5051852;28;20470;-79
2022/03/02 09:00:43;;;;;;;9.87;8.00;;;18.40;45.00;;;;;;5051762;28;20481;-79
2022/03/02 09:03:14;;;;;;;10.93;8.13;;;18.60;45.00;;;;;;5051728;28;20479;-79
2022/03/02 09:05:44;;;;;;;9.77;8.00;;;18.80;44.80;;;;;;5051988;28;20493;-79
2022/03/02 09:08:12;;;;;;;8.80;7.90;;;19.00;44.80;;;;;;5055559;28;20508;-76
2022/03/02 09:10:40;;;;;;;7.83;7.03;;;19.00;44.90;;;;;;5054875;28;20447;-78
2022/03/02 09:13:08;;;;;;;11.47;7.57;;;19.30;44.80;;;;;;5055354;28;20442;-77
2022/03/02 09:15:38;;;;;;;8.50;7.60;;;19.40;44.80;;;;;;5055537;28;20458;-77
2022/03/02 09:18:06;;;;;;;9.70;8.00;;;19.70;44.80;;;;;;5055555;28;20497;-77
2022/03/02 09:20:34;;;;;;;9.00;7.27;;;19.80;44.80;;;;;;5056628;28;20494;-77
2022/03/02 09:23:04;;;;;;;7.77;6.97;;;20.00;44.40;;;;;;5054979;28;20520;-77
2022/03/02 09:25:32;;;;;;;8.67;7.63;;;20.20;44.50;;;;;;5055011;28;20474;-77
2022/03/02 09:28:00;;;;;;;11.30;8.23;;;20.30;44.50;;;;;;5053960;28;20550;-77
2022/03/02 09:30:28;;;;;;;8.20;6.97;;;20.50;44.40;;;;;;5054965;28;20529;-77
2022/03/02 09:32:59;;;;;;;8.43;7.03;;;20.80;44.30;;;;;;5054951;28;20458;-77
2022/03/02 09:35:27;;;;;;;9.23;7.80;;;21.00;44.20;;;;;;5055048;28;20524;-77
2022/03/02 09:37:56;;;;;;;9.10;8.03;;;21.20;43.90;;;;;;5055126;28;20490;-78
2022/03/02 09:40:25;;;;;;;9.77;8.03;;;21.50;43.70;;;;;;5055846;28;20442;-78
2022/03/02 09:42:58;;;;;;;8.20;7.40;;;21.70;43.70;;;;;;5055583;28;21005;-78
2022/03/02 09:45:26;;;;;;;8.43;7.63;;;21.80;43.60;;;;;;5054697;28;20454;-78
2022/03/02 09:47:57;;;;;;;7.67;6.93;;;22.00;43.50;;;;;;5054778;28;20453;-78
2022/03/02 09:50:26;;;;;;;8.07;7.20;;;22.10;43.30;;;;;;5054840;28;20494;-78
2022/03/02 09:52:55;;;;;;;8.47;7.37;;;22.30;43.30;;;;;;5054733;28;20507;-79
2022/03/02 09:55:24;;;;;;;8.23;7.43;;;22.50;43.10;;;;;;5056142;28;20518;-79
2022/03/02 09:57:54;;;;;;;8.60;7.70;;;22.70;43.10;;;;;;5055915;28;20426;-78
2022/03/02 10:00:22;;;;;;;9.07;7.40;;;22.90;43.00;;;;;;5056134;28;20480;-78
2022/03/02 10:02:51;;;;;;;7.87;7.07;;;23.10;42.90;;;;;;5054925;28;20486;-78
2022/03/02 10:05:22;;;;;;;8.90;8.00;;;23.30;42.70;;;;;;5055532;28;20443;-78
2022/03/02 10:07:57;;;;;;;8.33;7.53;;;23.40;42.50;;;;;;5056607;28;20434;-78
2022/03/02 10:10:27;;;;;;;7.60;6.90;;;23.60;42.50;;;;;;5054587;28;20430;-78
2022/03/02 10:12:56;;;;;;;8.17;7.30;;;23.80;42.50;;;;;;5054729;28;20487;-78
2022/03/02 10:15:24;;;;;;;8.07;7.23;;;24.00;42.30;;;;;;5054524;28;20453;-78
2022/03/02 10:17:58;;;;;;;7.60;6.90;;;24.10;42.10;;;;;;5053284;28;20406;-78
2022/03/02 10:20:28;;;;;;;8.00;7.20;;;24.20;42.00;;;;;;5053358;28;20458;-78
2022/03/02 10:23:21;;;;;;;8.27;7.40;;;24.40;42.00;;;;;;5054394;28;20517;-78
2022/03/02 10:26:06;;;;;;;9.10;8.10;;;24.50;41.90;;;;;;5054308;28;20441;-78
2022/03/02 10:28:46;;;;;;;10.60;8.50;;;24.70;41.90;;;;;;5054618;28;20401;-79
2022/03/02 10:31:42;;;;;;;10.13;7.53;;;24.90;41.80;;;;;;5054182;28;20503;-78
2022/03/02 10:34:34;;;;;;;9.10;8.10;;;25.10;42.20;;;;;;5052795;28;20454;-79
2022/03/02 10:37:09;;;;;;;7.97;7.17;;;25.30;41.50;;;;;;5056569;28;20481;-83
2022/03/02 10:39:51;;;;;;;7.87;7.07;;;25.40;41.20;;;;;;5058873;28;20484;-79
2022/03/02 10:42:22;;;;;;;8.63;7.77;;;25.60;41.00;;;;;;5058160;28;20541;-79
2022/03/02 10:45:11;;;;;;;8.13;7.43;;;25.70;40.90;;;;;;5059090;28;20477;-79
2022/03/02 10:47:46;;;;;;;8.07;7.17;;;25.90;40.80;;;;;;5059179;28;20426;-79
2022/03/02 10:50:14;;;;;;;11.37;7.87;;;26.10;40.70;;;;;;5056619;28;20438;-79
2022/03/02 10:52:43;;;;;;;8.20;7.40;;;26.30;40.50;;;;;;5056325;28;20520;-80
2022/03/02 10:55:12;;;;;;;9.57;7.63;;;26.40;40.30;;;;;;5057429;28;20444;-79
2022/03/02 10:57:40;;;;;;;9.13;7.60;;;26.50;40.20;;;;;;5037980;28;20435;-79
2022/03/02 11:00:13;;;;;;;8.20;7.50;;;26.70;40.10;;;;;;5034220;28;20437;-78
2022/03/02 11:02:42;;;;;;;8.67;7.77;;;26.80;39.80;;;;;;5034778;28;20459;-78
2022/03/02 11:05:11;;;;;;;12.47;7.57;;;27.10;39.70;;;;;;5034539;28;20482;-78
2022/03/02 11:07:46;;;;;;;7.87;7.07;;;27.20;39.50;;;;;;5034322;28;20414;-78
2022/03/02 11:10:16;;;;;;;8.50;7.13;;;27.40;39.20;;;;;;5048955;28;20460;-78
2022/03/02 11:12:44;;;;;;;8.53;7.33;;;27.60;39.10;;;;;;5046500;28;20890;-78
2022/03/02 11:15:13;;;;;;;12.03;7.60;;;27.80;38.90;;;;;;5053292;28;20466;-79
2022/03/02 11:17:56;;;;;;;11.40;7.33;;;28.00;38.60;;;;;;5053361;28;20530;-79
2022/03/02 11:20:25;;;;;;;8.63;6.90;;;28.20;38.40;;;;;;5054349;28;20438;-80
2022/03/02 11:22:57;;;;;;;12.43;7.27;;;28.50;38.00;;;;;;5055446;28;20530;-80
2022/03/02 11:25:41;;;;;;;11.13;7.80;;;28.80;37.80;;;;;;5054997;28;20469;-80
2022/03/02 11:28:09;;;;;;;7.90;6.73;;;29.40;37.10;;;;;;5054474;28;20520;-80
2022/03/02 11:30:37;;;;;;;7.50;6.47;;;30.20;35.90;;;;;;5054376;28;20458;-80
2022/03/02 11:33:07;;;;;;;9.23;7.33;;;31.00;34.90;;;;;;5055100;28;20450;-80
2022/03/02 11:35:36;;;;;;;8.50;6.63;;;31.70;33.90;;;;;;5054066;28;20557;-79
2022/03/02 11:38:06;;;;;;;7.40;6.80;;;32.60;32.80;;;;;;5054087;28;20458;-79
2022/03/02 11:40:42;;;;;;;8.20;7.07;;;33.40;31.70;;;;;;5054116;28;20439;-79
2022/03/02 11:43:14;;;;;;;6.80;6.30;;;34.20;31.30;;;;;;5052546;28;20505;-79
2022/03/02 11:45:42;;;;;;;6.63;6.10;;;34.90;29.80;;;;;;5046446;28;20473;-79
2022/03/02 11:48:13;;;;;;;6.03;5.63;;;35.50;29.10;;;;;;5054072;28;20529;-79
2022/03/02 11:51:02;;;;;;;6.70;6.17;;;36.30;28.30;;;;;;5054480;28;20485;-80
2022/03/02 11:53:33;;;;;;;6.13;5.63;;;37.10;27.40;;;;;;5054147;28;20650;-80
2022/03/02 11:56:01;;;;;;;6.93;5.90;;;37.60;27.00;;;;;;5054206;28;20509;-80
2022/03/02 11:58:35;;;;;;;6.07;5.60;;;38.30;26.40;;;;;;5053552;28;20538;-80
2022/03/02 12:01:06;;;;;;;6.03;5.63;;;39.00;25.70;;;;;;5055332;28;20511;-80
2022/03/02 12:03:37;;;;;;;5.40;5.10;;;39.50;25.30;;;;;;5055879;28;20465;-79
2022/03/02 12:06:05;;;;;;;5.73;5.33;;;40.10;24.70;;;;;;5054595;28;20465;-79
2022/03/02 12:08:35;;;;;;;6.23;5.63;;;40.60;24.10;;;;;;5054900;28;20481;-79
2022/03/02 12:11:10;;;;;;;5.60;5.10;;;41.00;23.80;;;;;;5054650;28;20480;-79
2022/03/02 12:13:38;;;;;;;4.87;4.50;;;41.30;23.70;;;;;;5054531;28;20544;-79
2022/03/02 12:16:06;;;;;;;4.63;4.27;;;41.60;23.20;;;;;;5054461;28;20550;-79
2022/03/02 12:18:38;;;;;;;5.77;5.47;;;42.00;23.00;;;;;;5054411;28;20445;-79
2022/03/02 12:21:06;;;;;;;4.97;4.57;;;42.10;22.80;;;;;;5054584;28;20440;-79
2022/03/02 12:23:36;;;;;;;5.07;4.87;;;42.20;22.70;;;;;;5052682;28;20545;-79
2022/03/02 12:26:04;;;;;;;4.60;4.40;;;42.40;22.60;;;;;;5054509;28;20508;-79
2022/03/02 12:28:32;;;;;;;5.10;4.70;;;42.50;22.40;;;;;;5054640;28;20487;-80
2022/03/02 12:31:00;;;;;;;4.67;4.40;;;42.60;22.40;;;;;;5053519;28;20466;-80
2022/03/02 12:33:28;;;;;;;4.50;4.20;;;42.60;22.20;;;;;;5055084;28;20458;-81
2022/03/02 12:36:16;;;;;;;4.43;4.13;;;42.70;22.10;;;;;;5056410;28;20426;-81
2022/03/02 12:38:45;;;;;;;4.80;4.30;;;42.90;22.10;;;;;;5056331;28;20446;-81
2022/03/02 12:41:13;;;;;;;4.77;4.47;;;42.90;22.20;;;;;;5056324;28;20514;-81
2022/03/02 12:43:41;;;;;;;4.70;4.40;;;43.10;22.10;;;;;;5056394;28;20458;-81
2022/03/02 12:46:09;;;;;;;4.30;4.10;;;43.00;22.00;;;;;;5057130;28;20448;-81
2022/03/02 12:48:37;;;;;;;4.40;4.20;;;43.00;22.50;;;;;;5055763;28;20484;-81
2022/03/02 12:51:25;;;;;;;4.10;4.00;;;43.00;22.10;;;;;;5056485;28;20516;-81